sensor_id;sensor_type;location;lat;lon;timestamp;P1;durP1;ratioP1;P2;durP2;ratioP2
4307;SDS011;2167;53.448;9.984;2023-01-26T00:02:06;23.93;;;10.37;;
4307;SDS011;2167;53.448;9.984;2023-01-26T00:04:32;20.20;;;10.20;;
4307;SDS011;2167;53.448;9.984;2023-01-26T00:06:57;25.43;;;11.27;;
4307;SDS011;2167;53.448;9.984;2023-01-26T00:09:23;29.57;;;11.80;;
4307;SDS011;2167;53.448;9.984;2023-01-26T00:11:49;32.40;;;11.53;;
4307;SDS011;2167;53.448;9.984;2023-01-26T00:14:14;23.23;;;9.07;;
4307;SDS011;2167;53.448;9.984;2023-01-26T00:16:40;25.77;;;10.00;;
4307;SDS011;2167;53.448;9.984;2023-01-26T00:19:06;19.50;;;10.17;;
4307;SDS011;2167;53.448;9.984;2023-01-26T00:21:31;30.17;;;11.57;;
4307;SDS011;2167;53.448;9.984;2023-01-26T00:23:57;35.13;;;13.30;;
4307;SDS011;2167;53.448;9.984;2023-01-26T00:26:24;22.47;;;10.03;;
4307;SDS011;2167;53.448;9.984;2023-01-26T00:28:50;28.10;;;13.00;;
4307;SDS011;2167;53.448;9.984;2023-01-26T00:31:18;28.13;;;12.17;;
4307;SDS011;2167;53.448;9.984;2023-01-26T00:33:46;22.43;;;11.37;;
4307;SDS011;2167;53.448;9.984;2023-01-26T00:36:12;31.00;;;11.67;;
4307;SDS011;2167;53.448;9.984;2023-01-26T00:38:38;34.97;;;15.55;;
4307;SDS011;2167;53.448;9.984;2023-01-26T00:41:04;41.87;;;14.40;;
4307;SDS011;2167;53.448;9.984;2023-01-26T00:43:30;37.40;;;11.63;;
4307;SDS011;2167;53.448;9.984;2023-01-26T00:45:56;44.67;;;16.37;;
4307;SDS011;2167;53.448;9.984;2023-01-26T00:48:21;24.23;;;11.47;;
4307;SDS011;2167;53.448;9.984;2023-01-26T00:50:49;27.83;;;10.03;;
4307;SDS011;2167;53.448;9.984;2023-01-26T00:53:14;52.00;;;19.70;;
4307;SDS011;2167;53.448;9.984;2023-01-26T00:55:41;35.67;;;14.47;;
4307;SDS011;2167;53.448;9.984;2023-01-26T00:58:07;36.97;;;14.30;;
4307;SDS011;2167;53.448;9.984;2023-01-26T01:00:33;41.27;;;15.87;;
4307;SDS011;2167;53.448;9.984;2023-01-26T01:03:00;35.80;;;14.87;;
4307;SDS011;2167;53.448;9.984;2023-01-26T01:05:26;30.23;;;12.82;;
4307;SDS011;2167;53.448;9.984;2023-01-26T01:07:53;29.93;;;12.70;;
4307;SDS011;2167;53.448;9.984;2023-01-26T01:10:19;28.50;;;10.83;;
4307;SDS011;2167;53.448;9.984;2023-01-26T01:12:46;35.63;;;14.70;;
4307;SDS011;2167;53.448;9.984;2023-01-26T01:15:11;35.40;;;11.90;;
4307;SDS011;2167;53.448;9.984;2023-01-26T01:17:37;25.40;;;9.67;;
4307;SDS011;2167;53.448;9.984;2023-01-26T01:20:07;39.57;;;16.20;;
4307;SDS011;2167;53.448;9.984;2023-01-26T01:22:35;53.60;;;20.47;;
4307;SDS011;2167;53.448;9.984;2023-01-26T01:25:01;37.17;;;12.67;;
4307;SDS011;2167;53.448;9.984;2023-01-26T01:27:27;34.20;;;12.93;;
4307;SDS011;2167;53.448;9.984;2023-01-26T01:29:53;27.67;;;10.40;;
4307;SDS011;2167;53.448;9.984;2023-01-26T01:32:19;25.33;;;10.13;;
4307;SDS011;2167;53.448;9.984;2023-01-26T01:34:48;48.58;;;17.85;;
4307;SDS011;2167;53.448;9.984;2023-01-26T01:37:16;39.07;;;13.97;;
4307;SDS011;2167;53.448;9.984;2023-01-26T01:39:42;33.77;;;15.60;;
4307;SDS011;2167;53.448;9.984;2023-01-26T01:42:08;48.33;;;13.40;;
4307;SDS011;2167;53.448;9.984;2023-01-26T01:44:34;26.33;;;9.00;;
4307;SDS011;2167;53.448;9.984;2023-01-26T01:47:01;33.55;;;12.43;;
4307;SDS011;2167;53.448;9.984;2023-01-26T01:49:31;21.87;;;10.80;;
4307;SDS011;2167;53.448;9.984;2023-01-26T01:52:05;26.27;;;10.07;;
4307;SDS011;2167;53.448;9.984;2023-01-26T01:54:42;26.33;;;10.73;;
4307;SDS011;2167;53.448;9.984;2023-01-26T01:57:13;27.53;;;10.00;;
4307;SDS011;2167;53.448;9.984;2023-01-26T01:59:53;30.77;;;12.07;;
4307;SDS011;2167;53.448;9.984;2023-01-26T02:02:29;42.00;;;17.90;;
4307;SDS011;2167;53.448;9.984;2023-01-26T02:04:56;44.97;;;16.30;;
4307;SDS011;2167;53.448;9.984;2023-01-26T02:07:27;24.03;;;9.87;;
4307;SDS011;2167;53.448;9.984;2023-01-26T02:09:54;28.00;;;11.33;;
4307;SDS011;2167;53.448;9.984;2023-01-26T02:12:39;26.67;;;10.37;;
4307;SDS011;2167;53.448;9.984;2023-01-26T02:15:06;31.33;;;10.90;;
4307;SDS011;2167;53.448;9.984;2023-01-26T02:17:32;43.08;;;16.73;;
4307;SDS011;2167;53.448;9.984;2023-01-26T02:20:13;46.97;;;16.03;;
4307;SDS011;2167;53.448;9.984;2023-01-26T02:22:43;24.83;;;11.27;;
4307;SDS011;2167;53.448;9.984;2023-01-26T02:27:51;28.20;;;12.13;;
4307;SDS011;2167;53.448;9.984;2023-01-26T02:30:16;30.00;;;11.00;;
4307;SDS011;2167;53.448;9.984;2023-01-26T02:32:42;25.90;;;9.87;;
4307;SDS011;2167;53.448;9.984;2023-01-26T02:35:08;27.70;;;13.40;;
4307;SDS011;2167;53.448;9.984;2023-01-26T02:37:33;18.73;;;8.00;;
4307;SDS011;2167;53.448;9.984;2023-01-26T02:40:01;27.33;;;12.30;;
4307;SDS011;2167;53.448;9.984;2023-01-26T02:42:34;27.90;;;13.07;;
4307;SDS011;2167;53.448;9.984;2023-01-26T02:45:06;25.83;;;12.00;;
4307;SDS011;2167;53.448;9.984;2023-01-26T02:47:33;24.70;;;8.13;;
4307;SDS011;2167;53.448;9.984;2023-01-26T02:49:59;30.63;;;12.03;;
4307;SDS011;2167;53.448;9.984;2023-01-26T02:52:25;25.80;;;13.50;;
4307;SDS011;2167;53.448;9.984;2023-01-26T02:54:53;32.03;;;13.83;;
4307;SDS011;2167;53.448;9.984;2023-01-26T02:57:38;26.77;;;9.90;;
4307;SDS011;2167;53.448;9.984;2023-01-26T03:00:06;21.20;;;9.90;;
4307;SDS011;2167;53.448;9.984;2023-01-26T03:02:38;27.33;;;10.33;;
4307;SDS011;2167;53.448;9.984;2023-01-26T03:05:05;22.30;;;9.27;;
4307;SDS011;2167;53.448;9.984;2023-01-26T03:07:31;31.10;;;11.30;;
4307;SDS011;2167;53.448;9.984;2023-01-26T03:09:56;33.00;;;12.53;;
4307;SDS011;2167;53.448;9.984;2023-01-26T03:12:25;20.90;;;10.87;;
4307;SDS011;2167;53.448;9.984;2023-01-26T03:14:51;30.30;;;10.67;;
4307;SDS011;2167;53.448;9.984;2023-01-26T03:17:36;26.20;;;9.70;;
4307;SDS011;2167;53.448;9.984;2023-01-26T03:20:02;26.17;;;10.13;;
4307;SDS011;2167;53.448;9.984;2023-01-26T03:22:47;23.60;;;9.57;;
4307;SDS011;2167;53.448;9.984;2023-01-26T03:25:39;21.43;;;9.00;;
4307;SDS011;2167;53.448;9.984;2023-01-26T03:28:23;27.67;;;10.17;;
4307;SDS011;2167;53.448;9.984;2023-01-26T03:30:50;26.40;;;11.17;;
4307;SDS011;2167;53.448;9.984;2023-01-26T03:33:17;19.77;;;8.73;;
4307;SDS011;2167;53.448;9.984;2023-01-26T03:35:43;23.90;;;9.10;;
4307;SDS011;2167;53.448;9.984;2023-01-26T03:38:09;23.13;;;11.90;;
4307;SDS011;2167;53.448;9.984;2023-01-26T03:40:35;22.97;;;9.30;;
4307;SDS011;2167;53.448;9.984;2023-01-26T03:43:19;22.70;;;10.23;;
4307;SDS011;2167;53.448;9.984;2023-01-26T03:46:03;24.80;;;7.90;;
4307;SDS011;2167;53.448;9.984;2023-01-26T03:48:49;29.20;;;10.70;;
4307;SDS011;2167;53.448;9.984;2023-01-26T03:51:33;31.27;;;10.87;;
4307;SDS011;2167;53.448;9.984;2023-01-26T03:54:17;23.73;;;9.57;;
4307;SDS011;2167;53.448;9.984;2023-01-26T03:57:01;23.10;;;8.37;;
4307;SDS011;2167;53.448;9.984;2023-01-26T03:59:27;20.63;;;9.00;;
4307;SDS011;2167;53.448;9.984;2023-01-26T04:02:06;23.07;;;9.70;;
4307;SDS011;2167;53.448;9.984;2023-01-26T04:04:52;24.43;;;11.67;;
4307;SDS011;2167;53.448;9.984;2023-01-26T04:07:36;23.30;;;8.57;;
4307;SDS011;2167;53.448;9.984;2023-01-26T04:10:21;22.93;;;9.97;;
4307;SDS011;2167;53.448;9.984;2023-01-26T04:12:48;21.60;;;9.33;;
4307;SDS011;2167;53.448;9.984;2023-01-26T04:15:32;21.83;;;8.73;;
4307;SDS011;2167;53.448;9.984;2023-01-26T04:18:18;36.15;;;14.77;;
4307;SDS011;2167;53.448;9.984;2023-01-26T04:21:02;22.83;;;8.50;;
4307;SDS011;2167;53.448;9.984;2023-01-26T04:23:47;30.37;;;12.60;;
4307;SDS011;2167;53.448;9.984;2023-01-26T04:26:13;16.37;;;8.70;;
4307;SDS011;2167;53.448;9.984;2023-01-26T04:28:38;21.03;;;9.93;;
4307;SDS011;2167;53.448;9.984;2023-01-26T04:31:04;30.45;;;11.77;;
4307;SDS011;2167;53.448;9.984;2023-01-26T04:33:30;29.27;;;9.43;;
4307;SDS011;2167;53.448;9.984;2023-01-26T04:35:56;29.57;;;13.23;;
4307;SDS011;2167;53.448;9.984;2023-01-26T04:38:26;25.27;;;9.40;;
4307;SDS011;2167;53.448;9.984;2023-01-26T04:40:52;27.50;;;11.20;;
4307;SDS011;2167;53.448;9.984;2023-01-26T04:43:18;21.63;;;8.20;;
4307;SDS011;2167;53.448;9.984;2023-01-26T04:45:44;22.77;;;9.87;;
4307;SDS011;2167;53.448;9.984;2023-01-26T04:48:09;23.10;;;7.90;;
4307;SDS011;2167;53.448;9.984;2023-01-26T04:50:35;23.53;;;9.73;;
4307;SDS011;2167;53.448;9.984;2023-01-26T04:53:01;23.60;;;8.67;;
4307;SDS011;2167;53.448;9.984;2023-01-26T04:55:26;22.23;;;11.43;;
4307;SDS011;2167;53.448;9.984;2023-01-26T04:57:52;21.77;;;8.93;;
4307;SDS011;2167;53.448;9.984;2023-01-26T05:00:18;31.38;;;11.68;;
4307;SDS011;2167;53.448;9.984;2023-01-26T05:02:43;24.37;;;8.63;;
4307;SDS011;2167;53.448;9.984;2023-01-26T05:05:09;18.20;;;9.37;;
4307;SDS011;2167;53.448;9.984;2023-01-26T05:07:35;30.33;;;11.40;;
4307;SDS011;2167;53.448;9.984;2023-01-26T05:10:00;32.00;;;12.83;;
4307;SDS011;2167;53.448;9.984;2023-01-26T05:12:27;26.20;;;12.43;;
4307;SDS011;2167;53.448;9.984;2023-01-26T05:14:58;25.13;;;9.80;;
4307;SDS011;2167;53.448;9.984;2023-01-26T05:17:24;26.33;;;10.53;;
4307;SDS011;2167;53.448;9.984;2023-01-26T05:19:49;20.20;;;8.97;;
4307;SDS011;2167;53.448;9.984;2023-01-26T05:22:15;19.03;;;9.60;;
4307;SDS011;2167;53.448;9.984;2023-01-26T05:24:41;24.97;;;9.17;;
4307;SDS011;2167;53.448;9.984;2023-01-26T05:27:06;15.40;;;6.37;;
4307;SDS011;2167;53.448;9.984;2023-01-26T05:29:47;27.77;;;9.17;;
4307;SDS011;2167;53.448;9.984;2023-01-26T05:32:14;24.10;;;8.50;;
4307;SDS011;2167;53.448;9.984;2023-01-26T05:34:40;18.00;;;8.10;;
4307;SDS011;2167;53.448;9.984;2023-01-26T05:37:05;16.93;;;6.30;;
4307;SDS011;2167;53.448;9.984;2023-01-26T05:39:31;36.30;;;14.47;;
4307;SDS011;2167;53.448;9.984;2023-01-26T05:41:57;30.10;;;10.73;;
4307;SDS011;2167;53.448;9.984;2023-01-26T05:44:22;22.03;;;8.80;;
4307;SDS011;2167;53.448;9.984;2023-01-26T05:46:51;36.97;;;11.40;;
4307;SDS011;2167;53.448;9.984;2023-01-26T05:49:16;23.10;;;7.80;;
4307;SDS011;2167;53.448;9.984;2023-01-26T05:51:42;27.98;;;12.50;;
4307;SDS011;2167;53.448;9.984;2023-01-26T05:54:08;22.47;;;9.50;;
4307;SDS011;2167;53.448;9.984;2023-01-26T05:56:33;15.30;;;8.73;;
4307;SDS011;2167;53.448;9.984;2023-01-26T05:58:59;18.87;;;8.93;;
4307;SDS011;2167;53.448;9.984;2023-01-26T06:01:25;25.53;;;10.40;;
4307;SDS011;2167;53.448;9.984;2023-01-26T06:03:50;21.33;;;10.20;;
4307;SDS011;2167;53.448;9.984;2023-01-26T06:06:16;35.60;;;13.50;;
4307;SDS011;2167;53.448;9.984;2023-01-26T06:08:41;23.20;;;10.20;;
4307;SDS011;2167;53.448;9.984;2023-01-26T06:11:07;21.90;;;10.83;;
4307;SDS011;2167;53.448;9.984;2023-01-26T06:13:32;15.20;;;9.00;;
4307;SDS011;2167;53.448;9.984;2023-01-26T06:16:01;20.93;;;10.30;;
4307;SDS011;2167;53.448;9.984;2023-01-26T06:18:27;24.77;;;11.00;;
4307;SDS011;2167;53.448;9.984;2023-01-26T06:20:52;30.20;;;9.07;;
4307;SDS011;2167;53.448;9.984;2023-01-26T06:23:18;31.47;;;11.90;;
4307;SDS011;2167;53.448;9.984;2023-01-26T06:25:43;16.67;;;8.17;;
4307;SDS011;2167;53.448;9.984;2023-01-26T06:28:09;18.77;;;8.67;;
4307;SDS011;2167;53.448;9.984;2023-01-26T06:30:34;17.50;;;6.83;;
4307;SDS011;2167;53.448;9.984;2023-01-26T06:33:00;13.87;;;8.77;;
4307;SDS011;2167;53.448;9.984;2023-01-26T06:35:26;18.23;;;7.67;;
4307;SDS011;2167;53.448;9.984;2023-01-26T06:37:51;23.40;;;9.80;;
4307;SDS011;2167;53.448;9.984;2023-01-26T06:40:17;15.50;;;7.67;;
4307;SDS011;2167;53.448;9.984;2023-01-26T06:42:49;20.40;;;6.63;;
4307;SDS011;2167;53.448;9.984;2023-01-26T06:45:16;18.20;;;8.20;;
4307;SDS011;2167;53.448;9.984;2023-01-26T06:47:47;21.30;;;9.03;;
4307;SDS011;2167;53.448;9.984;2023-01-26T06:50:15;12.50;;;5.20;;
4307;SDS011;2167;53.448;9.984;2023-01-26T06:52:45;17.73;;;7.00;;
4307;SDS011;2167;53.448;9.984;2023-01-26T06:55:16;20.70;;;6.73;;
4307;SDS011;2167;53.448;9.984;2023-01-26T06:57:45;14.07;;;6.43;;
4307;SDS011;2167;53.448;9.984;2023-01-26T07:00:11;27.37;;;12.07;;
4307;SDS011;2167;53.448;9.984;2023-01-26T07:02:38;19.07;;;8.13;;
4307;SDS011;2167;53.448;9.984;2023-01-26T07:05:03;15.97;;;8.90;;
4307;SDS011;2167;53.448;9.984;2023-01-26T07:07:29;16.80;;;7.80;;
4307;SDS011;2167;53.448;9.984;2023-01-26T07:09:55;15.93;;;7.90;;
4307;SDS011;2167;53.448;9.984;2023-01-26T07:12:20;25.97;;;9.03;;
4307;SDS011;2167;53.448;9.984;2023-01-26T07:14:46;19.97;;;6.63;;
4307;SDS011;2167;53.448;9.984;2023-01-26T07:17:12;12.80;;;6.77;;
4307;SDS011;2167;53.448;9.984;2023-01-26T07:19:37;14.60;;;6.40;;
4307;SDS011;2167;53.448;9.984;2023-01-26T07:22:03;12.73;;;6.43;;
4307;SDS011;2167;53.448;9.984;2023-01-26T07:24:29;19.63;;;5.97;;
4307;SDS011;2167;53.448;9.984;2023-01-26T07:26:55;17.10;;;7.30;;
4307;SDS011;2167;53.448;9.984;2023-01-26T07:29:20;12.20;;;7.20;;
4307;SDS011;2167;53.448;9.984;2023-01-26T07:31:46;16.80;;;7.40;;
4307;SDS011;2167;53.448;9.984;2023-01-26T07:34:12;13.90;;;5.77;;
4307;SDS011;2167;53.448;9.984;2023-01-26T07:36:38;19.77;;;10.43;;
4307;SDS011;2167;53.448;9.984;2023-01-26T07:39:04;12.90;;;7.30;;
4307;SDS011;2167;53.448;9.984;2023-01-26T07:41:30;13.43;;;6.57;;
4307;SDS011;2167;53.448;9.984;2023-01-26T07:43:56;15.80;;;7.93;;
4307;SDS011;2167;53.448;9.984;2023-01-26T07:46:21;11.80;;;5.37;;
4307;SDS011;2167;53.448;9.984;2023-01-26T07:48:48;11.47;;;6.77;;
4307;SDS011;2167;53.448;9.984;2023-01-26T07:51:14;12.90;;;5.97;;
4307;SDS011;2167;53.448;9.984;2023-01-26T07:53:40;12.63;;;5.73;;
4307;SDS011;2167;53.448;9.984;2023-01-26T07:56:13;15.83;;;7.20;;
4307;SDS011;2167;53.448;9.984;2023-01-26T07:58:43;13.30;;;6.40;;
4307;SDS011;2167;53.448;9.984;2023-01-26T08:01:13;15.57;;;7.00;;
4307;SDS011;2167;53.448;9.984;2023-01-26T08:03:39;17.50;;;7.10;;
4307;SDS011;2167;53.448;9.984;2023-01-26T08:06:06;22.47;;;8.30;;
4307;SDS011;2167;53.448;9.984;2023-01-26T08:08:32;15.43;;;7.20;;
4307;SDS011;2167;53.448;9.984;2023-01-26T08:10:59;11.50;;;6.70;;
4307;SDS011;2167;53.448;9.984;2023-01-26T08:13:26;14.70;;;8.23;;
4307;SDS011;2167;53.448;9.984;2023-01-26T08:15:52;25.10;;;8.30;;
4307;SDS011;2167;53.448;9.984;2023-01-26T08:18:18;12.83;;;5.80;;
4307;SDS011;2167;53.448;9.984;2023-01-26T08:20:53;14.30;;;7.90;;
4307;SDS011;2167;53.448;9.984;2023-01-26T08:23:20;15.03;;;6.27;;
4307;SDS011;2167;53.448;9.984;2023-01-26T08:25:45;19.17;;;7.63;;
4307;SDS011;2167;53.448;9.984;2023-01-26T08:28:11;25.90;;;8.67;;
4307;SDS011;2167;53.448;9.984;2023-01-26T08:30:37;9.30;;;5.63;;
4307;SDS011;2167;53.448;9.984;2023-01-26T08:33:03;27.33;;;9.90;;
4307;SDS011;2167;53.448;9.984;2023-01-26T08:35:29;18.20;;;8.27;;
4307;SDS011;2167;53.448;9.984;2023-01-26T08:37:56;16.93;;;5.57;;
4307;SDS011;2167;53.448;9.984;2023-01-26T08:40:21;10.80;;;5.90;;
4307;SDS011;2167;53.448;9.984;2023-01-26T08:42:49;21.03;;;6.37;;
4307;SDS011;2167;53.448;9.984;2023-01-26T08:45:15;12.57;;;4.60;;
4307;SDS011;2167;53.448;9.984;2023-01-26T08:47:41;19.80;;;7.20;;
4307;SDS011;2167;53.448;9.984;2023-01-26T08:50:07;13.53;;;6.00;;
4307;SDS011;2167;53.448;9.984;2023-01-26T08:52:33;10.67;;;5.80;;
4307;SDS011;2167;53.448;9.984;2023-01-26T08:55:00;9.90;;;4.80;;
4307;SDS011;2167;53.448;9.984;2023-01-26T08:57:26;13.63;;;5.40;;
4307;SDS011;2167;53.448;9.984;2023-01-26T08:59:52;14.17;;;5.27;;
4307;SDS011;2167;53.448;9.984;2023-01-26T09:02:17;13.90;;;4.67;;
4307;SDS011;2167;53.448;9.984;2023-01-26T09:04:43;10.90;;;4.93;;
4307;SDS011;2167;53.448;9.984;2023-01-26T09:07:08;16.00;;;4.87;;
4307;SDS011;2167;53.448;9.984;2023-01-26T09:09:34;4.90;;;3.67;;
4307;SDS011;2167;53.448;9.984;2023-01-26T09:11:59;15.57;;;6.20;;
4307;SDS011;2167;53.448;9.984;2023-01-26T09:14:25;14.20;;;5.30;;
4307;SDS011;2167;53.448;9.984;2023-01-26T09:16:52;16.63;;;5.97;;
4307;SDS011;2167;53.448;9.984;2023-01-26T09:19:18;11.33;;;5.63;;
4307;SDS011;2167;53.448;9.984;2023-01-26T09:21:43;14.27;;;7.07;;
4307;SDS011;2167;53.448;9.984;2023-01-26T09:24:09;18.35;;;7.45;;
4307;SDS011;2167;53.448;9.984;2023-01-26T09:26:35;14.00;;;7.13;;
4307;SDS011;2167;53.448;9.984;2023-01-26T09:29:00;15.47;;;5.03;;
4307;SDS011;2167;53.448;9.984;2023-01-26T09:31:26;6.40;;;4.10;;
4307;SDS011;2167;53.448;9.984;2023-01-26T09:33:51;10.50;;;4.60;;
4307;SDS011;2167;53.448;9.984;2023-01-26T09:36:17;17.20;;;6.80;;
4307;SDS011;2167;53.448;9.984;2023-01-26T09:38:43;12.00;;;4.87;;
4307;SDS011;2167;53.448;9.984;2023-01-26T09:43:44;18.10;;;6.23;;
4307;SDS011;2167;53.448;9.984;2023-01-26T09:49:09;6.57;;;3.90;;
4307;SDS011;2167;53.448;9.984;2023-01-26T09:51:41;6.27;;;4.37;;
4307;SDS011;2167;53.448;9.984;2023-01-26T09:54:37;9.03;;;3.40;;
4307;SDS011;2167;53.448;9.984;2023-01-26T09:57:20;14.27;;;5.63;;
4307;SDS011;2167;53.448;9.984;2023-01-26T09:59:53;10.17;;;4.17;;
4307;SDS011;2167;53.448;9.984;2023-01-26T10:05:15;9.60;;;3.80;;
4307;SDS011;2167;53.448;9.984;2023-01-26T10:07:59;9.30;;;3.00;;
4307;SDS011;2167;53.448;9.984;2023-01-26T10:10:27;6.00;;;3.73;;
4307;SDS011;2167;53.448;9.984;2023-01-26T10:12:58;9.20;;;3.60;;
4307;SDS011;2167;53.448;9.984;2023-01-26T10:17:55;9.00;;;4.60;;
4307;SDS011;2167;53.448;9.984;2023-01-26T10:20:30;10.10;;;4.80;;
4307;SDS011;2167;53.448;9.984;2023-01-26T10:23:41;12.63;;;6.03;;
4307;SDS011;2167;53.448;9.984;2023-01-26T10:25:52;8.00;;;3.70;;
4307;SDS011;2167;53.448;9.984;2023-01-26T10:28:25;14.68;;;6.40;;
4307;SDS011;2167;53.448;9.984;2023-01-26T10:30:53;9.87;;;3.73;;
4307;SDS011;2167;53.448;9.984;2023-01-26T10:35:56;10.37;;;4.60;;
4307;SDS011;2167;53.448;9.984;2023-01-26T10:41:01;16.00;;;6.75;;
4307;SDS011;2167;53.448;9.984;2023-01-26T10:43:30;9.00;;;4.97;;
4307;SDS011;2167;53.448;9.984;2023-01-26T10:45:58;10.33;;;4.90;;
4307;SDS011;2167;53.448;9.984;2023-01-26T10:48:25;10.47;;;4.80;;
4307;SDS011;2167;53.448;9.984;2023-01-26T10:50:52;11.70;;;5.10;;
4307;SDS011;2167;53.448;9.984;2023-01-26T10:53:27;11.83;;;6.00;;
4307;SDS011;2167;53.448;9.984;2023-01-26T10:56:10;19.23;;;4.10;;
4307;SDS011;2167;53.448;9.984;2023-01-26T10:58:53;9.67;;;4.30;;
4307;SDS011;2167;53.448;9.984;2023-01-26T11:01:22;6.97;;;4.40;;
4307;SDS011;2167;53.448;9.984;2023-01-26T11:03:58;3.97;;;3.30;;
4307;SDS011;2167;53.448;9.984;2023-01-26T11:06:31;9.57;;;4.57;;
4307;SDS011;2167;53.448;9.984;2023-01-26T11:11:39;11.47;;;4.30;;
4307;SDS011;2167;53.448;9.984;2023-01-26T11:14:09;9.50;;;3.70;;
4307;SDS011;2167;53.448;9.984;2023-01-26T11:16:41;17.77;;;5.40;;
4307;SDS011;2167;53.448;9.984;2023-01-26T11:19:26;8.10;;;3.57;;
4307;SDS011;2167;53.448;9.984;2023-01-26T11:22:02;12.87;;;5.17;;
4307;SDS011;2167;53.448;9.984;2023-01-26T11:24:32;8.93;;;4.63;;
4307;SDS011;2167;53.448;9.984;2023-01-26T11:27:19;12.43;;;6.20;;
4307;SDS011;2167;53.448;9.984;2023-01-26T11:30:18;15.20;;;5.77;;
4307;SDS011;2167;53.448;9.984;2023-01-26T11:33:00;12.43;;;4.90;;
4307;SDS011;2167;53.448;9.984;2023-01-26T11:35:47;12.73;;;5.67;;
4307;SDS011;2167;53.448;9.984;2023-01-26T11:46:51;13.67;;;5.20;;
4307;SDS011;2167;53.448;9.984;2023-01-26T11:55:24;16.60;;;5.67;;
4307;SDS011;2167;53.448;9.984;2023-01-26T12:00:58;20.83;;;6.03;;
4307;SDS011;2167;53.448;9.984;2023-01-26T12:03:40;14.00;;;6.40;;
4307;SDS011;2167;53.448;9.984;2023-01-26T12:06:16;8.90;;;3.53;;
4307;SDS011;2167;53.448;9.984;2023-01-26T12:08:58;13.27;;;4.53;;
4307;SDS011;2167;53.448;9.984;2023-01-26T12:11:28;6.50;;;4.73;;
4307;SDS011;2167;53.448;9.984;2023-01-26T12:19:33;11.93;;;4.50;;
4307;SDS011;2167;53.448;9.984;2023-01-26T12:22:05;9.87;;;4.50;;
4307;SDS011;2167;53.448;9.984;2023-01-26T12:28:39;10.07;;;4.90;;
4307;SDS011;2167;53.448;9.984;2023-01-26T12:33:26;10.10;;;4.70;;
4307;SDS011;2167;53.448;9.984;2023-01-26T12:50:03;15.23;;;4.70;;
4307;SDS011;2167;53.448;9.984;2023-01-26T12:52:34;15.32;;;4.68;;
4307;SDS011;2167;53.448;9.984;2023-01-26T12:57:51;14.20;;;5.30;;
4307;SDS011;2167;53.448;9.984;2023-01-26T13:00:30;15.17;;;4.73;;
4307;SDS011;2167;53.448;9.984;2023-01-26T13:02:59;16.63;;;6.13;;
4307;SDS011;2167;53.448;9.984;2023-01-26T13:10:58;9.73;;;4.43;;
4307;SDS011;2167;53.448;9.984;2023-01-26T13:13:30;22.10;;;6.70;;
4307;SDS011;2167;53.448;9.984;2023-01-26T13:18:50;14.23;;;5.23;;
4307;SDS011;2167;53.448;9.984;2023-01-26T13:26:46;10.57;;;5.43;;
4307;SDS011;2167;53.448;9.984;2023-01-26T13:31:55;16.60;;;6.73;;
4307;SDS011;2167;53.448;9.984;2023-01-26T13:34:36;15.47;;;6.73;;
4307;SDS011;2167;53.448;9.984;2023-01-26T13:37:25;17.97;;;5.53;;
4307;SDS011;2167;53.448;9.984;2023-01-26T13:40:00;21.03;;;8.47;;
4307;SDS011;2167;53.448;9.984;2023-01-26T13:45:58;11.50;;;3.83;;
4307;SDS011;2167;53.448;9.984;2023-01-26T13:51:06;15.60;;;5.23;;
4307;SDS011;2167;53.448;9.984;2023-01-26T13:53:40;13.83;;;6.27;;
4307;SDS011;2167;53.448;9.984;2023-01-26T13:56:23;8.87;;;4.23;;
4307;SDS011;2167;53.448;9.984;2023-01-26T13:59:01;12.00;;;6.77;;
4307;SDS011;2167;53.448;9.984;2023-01-26T14:01:28;6.00;;;3.60;;
4307;SDS011;2167;53.448;9.984;2023-01-26T14:04:01;15.77;;;6.13;;
4307;SDS011;2167;53.448;9.984;2023-01-26T14:06:28;12.13;;;6.13;;
4307;SDS011;2167;53.448;9.984;2023-01-26T14:08:54;8.60;;;5.40;;
4307;SDS011;2167;53.448;9.984;2023-01-26T14:11:24;8.10;;;4.70;;
4307;SDS011;2167;53.448;9.984;2023-01-26T14:13:53;12.48;;;6.40;;
4307;SDS011;2167;53.448;9.984;2023-01-26T14:16:22;8.97;;;4.37;;
4307;SDS011;2167;53.448;9.984;2023-01-26T14:19:16;11.77;;;4.63;;
4307;SDS011;2167;53.448;9.984;2023-01-26T14:21:51;11.73;;;4.47;;
4307;SDS011;2167;53.448;9.984;2023-01-26T14:24:34;8.37;;;3.63;;
4307;SDS011;2167;53.448;9.984;2023-01-26T14:27:05;5.80;;;4.53;;
4307;SDS011;2167;53.448;9.984;2023-01-26T14:29:44;13.70;;;4.23;;
4307;SDS011;2167;53.448;9.984;2023-01-26T14:32:13;11.43;;;4.50;;
4307;SDS011;2167;53.448;9.984;2023-01-26T14:34:49;11.60;;;3.80;;
4307;SDS011;2167;53.448;9.984;2023-01-26T14:37:16;8.60;;;3.80;;
4307;SDS011;2167;53.448;9.984;2023-01-26T14:39:42;8.13;;;3.67;;
4307;SDS011;2167;53.448;9.984;2023-01-26T14:42:28;9.53;;;4.60;;
4307;SDS011;2167;53.448;9.984;2023-01-26T14:44:53;12.20;;;4.60;;
4307;SDS011;2167;53.448;9.984;2023-01-26T14:47:23;6.53;;;3.83;;
4307;SDS011;2167;53.448;9.984;2023-01-26T14:49:55;8.70;;;4.53;;
4307;SDS011;2167;53.448;9.984;2023-01-26T14:54:52;15.82;;;7.00;;
4307;SDS011;2167;53.448;9.984;2023-01-26T14:57:24;9.70;;;5.00;;
4307;SDS011;2167;53.448;9.984;2023-01-26T14:59:55;12.50;;;5.60;;
4307;SDS011;2167;53.448;9.984;2023-01-26T15:07:32;12.40;;;5.60;;
4307;SDS011;2167;53.448;9.984;2023-01-26T15:15:28;13.80;;;4.07;;
4307;SDS011;2167;53.448;9.984;2023-01-26T15:18:02;9.27;;;4.60;;
4307;SDS011;2167;53.448;9.984;2023-01-26T15:20:37;10.00;;;3.83;;
4307;SDS011;2167;53.448;9.984;2023-01-26T15:23:10;13.77;;;6.07;;
4307;SDS011;2167;53.448;9.984;2023-01-26T15:25:53;9.33;;;5.43;;
4307;SDS011;2167;53.448;9.984;2023-01-26T15:28:23;7.50;;;4.10;;
4307;SDS011;2167;53.448;9.984;2023-01-26T15:30:51;13.13;;;5.07;;
4307;SDS011;2167;53.448;9.984;2023-01-26T15:36:03;14.70;;;7.05;;
4307;SDS011;2167;53.448;9.984;2023-01-26T15:38:29;18.77;;;6.90;;
4307;SDS011;2167;53.448;9.984;2023-01-26T15:40:54;13.10;;;4.90;;
4307;SDS011;2167;53.448;9.984;2023-01-26T15:43:20;11.17;;;4.70;;
4307;SDS011;2167;53.448;9.984;2023-01-26T15:45:53;11.10;;;5.50;;
4307;SDS011;2167;53.448;9.984;2023-01-26T15:48:23;12.75;;;5.68;;
4307;SDS011;2167;53.448;9.984;2023-01-26T15:50:50;17.83;;;7.50;;
4307;SDS011;2167;53.448;9.984;2023-01-26T15:53:20;8.53;;;4.77;;
4307;SDS011;2167;53.448;9.984;2023-01-26T15:55:47;11.83;;;7.10;;
4307;SDS011;2167;53.448;9.984;2023-01-26T15:58:20;17.30;;;6.00;;
4307;SDS011;2167;53.448;9.984;2023-01-26T16:00:47;13.43;;;5.90;;
4307;SDS011;2167;53.448;9.984;2023-01-26T16:03:15;9.80;;;5.43;;
4307;SDS011;2167;53.448;9.984;2023-01-26T16:05:42;11.47;;;5.50;;
4307;SDS011;2167;53.448;9.984;2023-01-26T16:08:11;11.93;;;5.70;;
4307;SDS011;2167;53.448;9.984;2023-01-26T16:10:37;10.03;;;4.70;;
4307;SDS011;2167;53.448;9.984;2023-01-26T16:13:07;10.10;;;4.93;;
4307;SDS011;2167;53.448;9.984;2023-01-26T16:15:38;11.23;;;5.57;;
4307;SDS011;2167;53.448;9.984;2023-01-26T16:18:07;10.87;;;5.80;;
4307;SDS011;2167;53.448;9.984;2023-01-26T16:20:34;10.67;;;5.60;;
4307;SDS011;2167;53.448;9.984;2023-01-26T16:23:02;14.37;;;5.80;;
4307;SDS011;2167;53.448;9.984;2023-01-26T16:25:30;11.80;;;6.97;;
4307;SDS011;2167;53.448;9.984;2023-01-26T16:27:57;20.40;;;8.15;;
4307;SDS011;2167;53.448;9.984;2023-01-26T16:30:24;17.70;;;8.13;;
4307;SDS011;2167;53.448;9.984;2023-01-26T16:32:50;11.27;;;5.47;;
4307;SDS011;2167;53.448;9.984;2023-01-26T16:35:17;14.33;;;8.00;;
4307;SDS011;2167;53.448;9.984;2023-01-26T16:37:44;9.33;;;6.27;;
4307;SDS011;2167;53.448;9.984;2023-01-26T16:40:11;12.03;;;5.20;;
4307;SDS011;2167;53.448;9.984;2023-01-26T16:42:43;12.77;;;6.20;;
4307;SDS011;2167;53.448;9.984;2023-01-26T16:45:18;18.90;;;8.98;;
4307;SDS011;2167;53.448;9.984;2023-01-26T16:47:49;15.17;;;7.80;;
4307;SDS011;2167;53.448;9.984;2023-01-26T16:50:18;13.70;;;6.50;;
4307;SDS011;2167;53.448;9.984;2023-01-26T16:52:44;18.93;;;6.73;;
4307;SDS011;2167;53.448;9.984;2023-01-26T16:55:10;15.63;;;8.57;;
4307;SDS011;2167;53.448;9.984;2023-01-26T16:57:44;24.53;;;8.77;;
4307;SDS011;2167;53.448;9.984;2023-01-26T17:00:14;12.87;;;7.83;;
4307;SDS011;2167;53.448;9.984;2023-01-26T17:02:42;13.90;;;8.93;;